Wilcox, Pennsylvania
Current Conditions -  °F | °C
As of 1:43 AM on Monday 24 Nov 2014 (Local Time) from KBFD Reporting Station
Heavy Rain Heavy Rain  
Wind Chill: 40°   Ceiling: 900
Heat Index: 47°   Visibility: 1.7mi
Dew Point: 44°   Wind: 18mph
Humidity: 90%   Direction: 150°SSE
Pressure: 29.48"   Gusts: 31mph
Location:  41.58°N, 78.69°W
Report Text: KBFD 240643Z AUTO 15016G27KT 1 3/4SM +RA BR BKN009 OVC012 08/07 A2948 RMK AO2 PK WND 14031/0630 P0017 T00830067
Loading
Personal Weather Stations






























Interactive Weather Map New forecast layout! Learn more

10-Day Weather Forecast

Advertisements
Track Severe Weather on mobile